Time;durP1;ratioP1;P1;durP2;ratioP2;P2;SDS_P1;SDS_P2;PMS_P1;PMS_P2;Temp;Humidity;BMP_temperature;BMP_pressure;BME280_temperature;BME280_humidity;BME280_pressure;Samples;Min_cycle;Max_cycle;Signal;HPM_P1;HPM_P2
2023/03/07 00:01:35;;;;;;;21.65;12.13;;;0.70;99.90;;;;;;7384564;19;20311;-81
2023/03/07 00:04:01;;;;;;;14.77;9.90;;;0.70;99.90;;;;;;7386051;19;20350;-83
2023/03/07 00:06:27;;;;;;;10.57;7.43;;;0.70;99.90;;;;;;7389260;19;20304;-85
2023/03/07 00:08:57;;;;;;;12.50;9.25;;;0.60;99.90;;;;;;7388482;19;20305;-84
2023/03/07 00:11:22;;;;;;;9.30;7.70;;;0.60;99.90;;;;;;7388293;19;20325;-80
2023/03/07 00:13:48;;;;;;;11.40;8.50;;;0.60;99.90;;;;;;7385143;19;20313;-79
2023/03/07 00:16:15;;;;;;;9.52;7.88;;;0.70;99.90;;;;;;7386195;19;20336;-79
2023/03/07 00:18:41;;;;;;;11.55;8.43;;;0.70;99.90;;;;;;7387006;19;20333;-82
2023/03/07 00:21:11;;;;;;;9.38;7.03;;;0.70;99.90;;;;;;7387378;19;20329;-81
2023/03/07 00:23:38;;;;;;;9.18;7.43;;;0.70;99.90;;;;;;7388607;19;20348;-84
2023/03/07 00:26:09;;;;;;;8.80;7.38;;;0.70;99.90;;;;;;7389988;19;21144;-82
2023/03/07 00:28:36;;;;;;;9.20;7.47;;;0.70;99.90;;;;;;7388522;19;20316;-80
2023/03/07 00:31:03;;;;;;;11.80;9.13;;;0.70;99.90;;;;;;7387231;19;20360;-86
2023/03/07 00:33:29;;;;;;;9.77;8.70;;;0.70;99.90;;;;;;7386943;19;20348;-80
2023/03/07 00:35:59;;;;;;;11.95;9.30;;;0.70;99.90;;;;;;7389145;19;20402;-85
2023/03/07 00:38:24;;;;;;;11.93;8.98;;;0.70;99.90;;;;;;7389924;19;20328;-78
2023/03/07 00:41:09;;;;;;;13.73;10.70;;;0.70;99.90;;;;;;7388546;19;20317;-81
2023/03/07 00:43:35;;;;;;;13.85;10.60;;;0.70;99.90;;;;;;7287506;19;2005876;-78
2023/03/07 00:46:00;;;;;;;13.45;9.90;;;0.70;99.90;;;;;;7386696;19;20334;-82
2023/03/07 00:48:26;;;;;;;12.10;9.37;;;0.70;99.90;;;;;;7387142;19;20321;-78
2023/03/07 00:50:54;;;;;;;13.02;9.60;;;0.80;99.90;;;;;;7384831;19;20324;-81
2023/03/07 00:53:20;;;;;;;10.88;9.60;;;0.80;99.90;;;;;;7385469;19;20315;-79
2023/03/07 00:56:01;;;;;;;16.63;11.37;;;0.90;99.90;;;;;;7385699;19;20308;-80
2023/03/07 00:58:29;;;;;;;10.77;8.83;;;0.80;99.90;;;;;;7385681;19;20317;-78
2023/03/07 01:00:55;;;;;;;12.82;9.68;;;0.80;99.90;;;;;;7380480;19;20309;-83
2023/03/07 01:03:22;;;;;;;14.40;10.23;;;0.90;99.90;;;;;;7382688;19;20343;-79
2023/03/07 01:05:48;;;;;;;12.48;9.43;;;1.00;99.90;;;;;;7385039;19;20384;-79
2023/03/07 01:08:23;;;;;;;12.88;10.30;;;0.90;99.90;;;;;;7383710;19;20325;-83
2023/03/07 01:10:50;;;;;;;11.65;9.68;;;0.90;99.90;;;;;;7383538;19;20349;-78
2023/03/07 01:13:17;;;;;;;13.57;10.80;;;0.90;99.90;;;;;;7382920;19;20321;-78
2023/03/07 01:15:43;;;;;;;12.20;10.50;;;0.90;99.90;;;;;;7383222;19;20313;-79
2023/03/07 01:18:09;;;;;;;10.65;8.77;;;0.90;99.90;;;;;;7382928;19;20646;-78
2023/03/07 01:20:36;;;;;;;12.77;10.60;;;0.90;99.90;;;;;;7382577;19;20324;-78
2023/03/07 01:23:02;;;;;;;13.15;10.05;;;0.80;99.90;;;;;;7383827;19;20312;-77
2023/03/07 01:25:27;;;;;;;11.30;9.33;;;0.70;99.90;;;;;;7386088;19;20409;-78
2023/03/07 01:27:54;;;;;;;10.40;8.65;;;0.80;99.90;;;;;;7384331;19;20645;-82
2023/03/07 01:30:22;;;;;;;11.75;9.43;;;0.80;99.90;;;;;;7383688;19;20323;-79
2023/03/07 01:32:58;;;;;;;10.93;9.52;;;0.70;99.90;;;;;;7384740;19;20679;-78
2023/03/07 01:35:24;;;;;;;11.60;9.68;;;0.70;99.90;;;;;;7385348;19;20349;-82
2023/03/07 01:37:51;;;;;;;9.50;8.50;;;0.70;99.90;;;;;;7382923;19;20985;-77
2023/03/07 01:40:18;;;;;;;11.48;9.82;;;0.70;99.90;;;;;;7383488;19;20365;-78
2023/03/07 01:42:44;;;;;;;12.70;10.18;;;0.70;99.90;;;;;;7382968;19;20344;-79
2023/03/07 01:45:12;;;;;;;12.02;9.50;;;0.70;99.90;;;;;;7382816;19;20321;-78
2023/03/07 01:47:42;;;;;;;15.18;11.45;;;0.60;99.90;;;;;;7388273;19;20334;-80
2023/03/07 01:50:10;;;;;;;13.05;10.15;;;0.70;99.90;;;;;;7390997;19;20335;-81
2023/03/07 01:52:40;;;;;;;13.27;11.02;;;0.60;99.90;;;;;;7384592;19;20323;-78
2023/03/07 01:55:16;;;;;;;14.82;11.77;;;0.60;99.90;;;;;;7382689;19;20436;-81
2023/03/07 01:57:44;;;;;;;14.70;11.50;;;0.60;99.90;;;;;;7383293;19;20324;-84
2023/03/07 02:00:12;;;;;;;14.18;11.43;;;0.60;99.90;;;;;;7382864;19;20332;-84
2023/03/07 02:02:39;;;;;;;15.93;12.48;;;0.60;99.90;;;;;;7383281;19;20332;-78
2023/03/07 02:05:09;;;;;;;13.50;11.43;;;0.60;99.90;;;;;;7381661;19;20312;-81
2023/03/07 02:07:42;;;;;;;16.20;12.37;;;0.50;99.90;;;;;;7379970;19;20637;-80
2023/03/07 02:10:10;;;;;;;14.10;11.70;;;0.50;99.90;;;;;;7382464;19;20328;-78
2023/03/07 02:12:35;;;;;;;15.27;11.90;;;0.50;99.90;;;;;;7382940;19;20392;-77
2023/03/07 02:15:04;;;;;;;12.95;11.00;;;0.50;99.90;;;;;;7381661;19;20854;-80
2023/03/07 02:17:30;;;;;;;15.23;12.15;;;0.50;99.90;;;;;;7380937;19;20407;-80
2023/03/07 02:20:00;;;;;;;14.63;10.77;;;0.50;99.90;;;;;;7384648;19;20297;-76
2023/03/07 02:22:26;;;;;;;14.88;11.60;;;0.50;99.90;;;;;;7383331;19;20344;-78
2023/03/07 02:25:16;;;;;;;13.93;11.07;;;0.60;99.90;;;;;;7383008;19;20360;-78
2023/03/07 02:27:42;;;;;;;14.15;11.27;;;0.50;99.90;;;;;;7278753;19;2004402;-79
2023/03/07 02:30:09;;;;;;;16.77;12.13;;;0.50;99.90;;;;;;7381008;19;20337;-78
2023/03/07 02:32:35;;;;;;;15.48;11.70;;;0.50;99.90;;;;;;7382958;19;20320;-77
2023/03/07 02:35:01;;;;;;;14.05;10.82;;;0.40;99.90;;;;;;7382571;19;20839;-80
2023/03/07 02:37:34;;;;;;;14.30;11.37;;;0.50;99.90;;;;;;7382414;19;20852;-84
2023/03/07 02:40:04;;;;;;;15.38;11.48;;;0.40;99.90;;;;;;7279663;19;2004423;-79
2023/03/07 02:42:30;;;;;;;14.35;11.20;;;0.40;99.90;;;;;;7381398;19;20301;-81
2023/03/07 02:45:04;;;;;;;15.57;11.80;;;0.40;99.90;;;;;;7382471;19;20375;-79
2023/03/07 02:47:32;;;;;;;15.55;11.52;;;0.50;99.90;;;;;;7383978;19;20308;-81
2023/03/07 02:49:58;;;;;;;12.20;10.23;;;0.40;99.90;;;;;;7377453;19;20297;-78
2023/03/07 02:52:26;;;;;;;13.55;11.07;;;0.40;99.90;;;;;;7376220;19;20327;-79
2023/03/07 02:54:58;;;;;;;13.80;10.90;;;0.40;99.90;;;;;;7379350;19;20308;-79
2023/03/07 02:57:28;;;;;;;14.47;11.20;;;0.40;99.90;;;;;;7381510;19;20296;-78
2023/03/07 02:59:54;;;;;;;15.53;11.73;;;0.40;99.90;;;;;;7379873;19;20319;-78
2023/03/07 03:02:20;;;;;;;17.05;12.80;;;0.40;99.90;;;;;;7379004;19;20450;-80
2023/03/07 03:04:46;;;;;;;13.90;10.90;;;0.40;99.90;;;;;;7379297;19;20301;-81
2023/03/07 03:07:12;;;;;;;15.32;12.10;;;0.40;99.90;;;;;;7379127;19;20301;-83
2023/03/07 03:09:39;;;;;;;15.85;11.75;;;0.30;99.90;;;;;;7380355;19;20376;-79
2023/03/07 03:12:05;;;;;;;14.77;11.25;;;0.30;99.90;;;;;;7380157;19;20341;-79
2023/03/07 03:14:39;;;;;;;14.32;12.18;;;0.30;99.90;;;;;;7379698;19;20313;-77
2023/03/07 03:17:04;;;;;;;16.13;12.00;;;0.30;99.90;;;;;;7379702;19;20320;-83
2023/03/07 03:19:31;;;;;;;17.10;12.18;;;0.30;99.90;;;;;;7380899;19;20340;-79
2023/03/07 03:21:57;;;;;;;15.77;11.48;;;0.30;99.90;;;;;;7381735;19;20328;-80
2023/03/07 03:24:24;;;;;;;16.92;12.80;;;0.30;99.90;;;;;;7378038;19;20296;-78
2023/03/07 03:26:50;;;;;;;15.98;11.10;;;0.30;99.90;;;;;;7381755;19;20883;-78
2023/03/07 03:29:18;;;;;;;15.77;11.57;;;0.30;99.90;;;;;;7361635;19;20351;-79
2023/03/07 03:31:44;;;;;;;15.80;12.00;;;0.40;99.90;;;;;;7381141;19;20317;-80
2023/03/07 03:34:10;;;;;;;16.70;11.93;;;0.30;99.90;;;;;;7380706;19;20309;-78
2023/03/07 03:36:36;;;;;;;15.02;11.20;;;0.40;99.90;;;;;;7381399;19;20443;-79
2023/03/07 03:39:09;;;;;;;15.35;11.77;;;0.40;99.90;;;;;;7380106;19;20316;-82
2023/03/07 03:41:43;;;;;;;15.30;11.85;;;0.30;99.90;;;;;;7380277;19;20313;-77
2023/03/07 03:44:09;;;;;;;17.17;11.87;;;0.40;99.90;;;;;;7382380;19;20318;-80
2023/03/07 03:46:36;;;;;;;15.45;11.85;;;0.40;99.90;;;;;;7381032;19;20301;-79
2023/03/07 03:49:16;;;;;;;14.55;11.30;;;0.40;99.90;;;;;;7356652;19;20680;-80
2023/03/07 03:52:03;;;;;;;17.23;12.82;;;0.40;99.90;;;;;;7383248;19;20316;-78
2023/03/07 04:10:09;;;;;;;17.13;12.73;;;0.40;99.90;;;;;;7385806;19;20320;-77
2023/03/07 04:13:16;;;;;;;16.02;12.77;;;0.40;99.90;;;;;;7229519;19;2004445;-77
2023/03/07 04:16:08;;;;;;;15.23;11.95;;;0.40;99.90;;;;;;7391903;19;20366;-78
2023/03/07 04:18:40;;;;;;;17.23;12.55;;;0.40;99.90;;;;;;7392883;19;20345;-78
2023/03/07 04:22:00;;;;;;;16.02;12.77;;;0.40;99.90;;;;;;7385635;19;20888;-81
2023/03/07 04:25:00;;;;;;;18.45;13.48;;;0.40;99.90;;;;;;7366951;19;20335;-79
2023/03/07 04:27:34;;;;;;;19.47;13.43;;;0.40;99.90;;;;;;7356668;19;20393;-78
2023/03/07 04:30:46;;;;;;;17.60;13.00;;;0.40;99.90;;;;;;7280582;19;2004384;-78
2023/03/07 04:37:49;;;;;;;18.13;13.63;;;0.40;99.90;;;;;;7392361;19;20349;-78
2023/03/07 04:40:37;;;;;;;17.17;13.40;;;0.50;99.90;;;;;;7387143;19;20349;-83
2023/03/07 04:44:17;;;;;;;17.10;13.02;;;0.50;99.90;;;;;;7391464;19;20749;-78
2023/03/07 04:57:33;;;;;;;18.63;13.70;;;0.50;99.90;;;;;;7362614;19;20878;-79
2023/03/07 05:00:26;;;;;;;18.30;13.75;;;0.50;99.90;;;;;;7344205;19;20312;-82
2023/03/07 05:07:22;;;;;;;17.63;13.63;;;0.50;99.90;;;;;;7391417;19;20365;-78
2023/03/07 05:10:13;;;;;;;18.30;13.73;;;0.50;99.90;;;;;;7369821;19;20305;-78
2023/03/07 05:17:16;;;;;;;15.60;13.13;;;0.50;99.90;;;;;;7391122;19;20339;-78
2023/03/07 05:19:48;;;;;;;17.92;13.20;;;0.50;99.90;;;;;;7328760;19;20321;-80
2023/03/07 05:22:17;;;;;;;15.63;13.03;;;0.60;99.90;;;;;;7384940;19;20323;-76
2023/03/07 05:24:47;;;;;;;15.60;12.50;;;0.60;99.90;;;;;;7261772;19;20666;-80
2023/03/07 05:31:41;;;;;;;16.88;13.30;;;0.70;99.90;;;;;;7390259;19;20344;-80
2023/03/07 05:34:37;;;;;;;16.20;12.82;;;0.70;99.90;;;;;;7392270;19;20340;-80
2023/03/07 05:41:01;;;;;;;16.40;12.65;;;0.80;99.90;;;;;;7357118;19;20308;-83
2023/03/07 05:43:28;;;;;;;16.52;12.73;;;0.80;99.90;;;;;;7386288;19;20316;-80
2023/03/07 05:45:55;;;;;;;19.60;13.93;;;0.80;99.90;;;;;;7385459;19;20321;-80
2023/03/07 05:48:21;;;;;;;17.95;13.27;;;0.90;99.90;;;;;;7386401;19;20344;-79
2023/03/07 05:50:47;;;;;;;16.55;12.65;;;0.90;99.90;;;;;;7380425;19;20407;-81
2023/03/07 05:53:14;;;;;;;15.82;12.30;;;0.90;99.90;;;;;;7381430;19;20329;-79
2023/03/07 05:55:40;;;;;;;15.60;11.75;;;0.90;99.90;;;;;;7382280;19;20359;-76
2023/03/07 05:58:06;;;;;;;17.40;11.88;;;0.90;99.90;;;;;;7382613;19;20387;-81
2023/03/07 06:00:32;;;;;;;15.13;11.80;;;0.90;99.90;;;;;;7380366;19;20389;-79
2023/03/07 06:03:02;;;;;;;16.38;12.32;;;1.00;99.90;;;;;;7383291;19;20816;-78
2023/03/07 06:05:30;;;;;;;14.40;11.88;;;1.00;99.90;;;;;;7383337;19;20839;-81
2023/03/07 06:07:56;;;;;;;17.08;12.60;;;1.00;99.90;;;;;;7384561;19;20403;-79
2023/03/07 06:10:22;;;;;;;15.10;11.52;;;1.10;99.90;;;;;;7383073;19;20333;-82
2023/03/07 06:12:51;;;;;;;16.10;11.25;;;1.10;99.90;;;;;;7382751;19;20666;-78
2023/03/07 06:15:17;;;;;;;16.92;12.63;;;1.20;99.90;;;;;;7384956;19;20937;-76
2023/03/07 06:17:45;;;;;;;14.23;11.20;;;1.20;99.90;;;;;;7385025;19;20309;-79
2023/03/07 06:20:11;;;;;;;16.40;12.23;;;1.20;99.90;;;;;;7383233;19;20409;-79
2023/03/07 06:22:37;;;;;;;14.18;11.25;;;1.10;99.90;;;;;;7381924;19;20858;-79
2023/03/07 06:25:06;;;;;;;15.23;11.23;;;1.20;99.90;;;;;;7385710;19;20308;-79
2023/03/07 06:27:35;;;;;;;14.05;10.85;;;1.10;99.90;;;;;;7385952;19;20323;-77
2023/03/07 06:30:02;;;;;;;14.52;11.40;;;1.10;99.90;;;;;;7383678;19;20313;-76
2023/03/07 06:32:30;;;;;;;14.48;11.40;;;1.10;99.90;;;;;;7382397;19;20307;-79
2023/03/07 06:34:56;;;;;;;14.93;11.93;;;1.10;99.90;;;;;;7381210;19;20319;-80
2023/03/07 06:37:29;;;;;;;12.93;11.10;;;1.10;99.90;;;;;;7380368;19;20308;-82
2023/03/07 06:39:57;;;;;;;15.82;11.18;;;1.10;99.90;;;;;;7382921;19;20340;-79
2023/03/07 06:42:23;;;;;;;14.50;12.00;;;1.10;99.90;;;;;;7381549;19;20321;-80
2023/03/07 06:44:49;;;;;;;15.63;12.02;;;1.10;99.90;;;;;;7383533;19;20359;-92
2023/03/07 06:47:14;;;;;;;13.67;11.23;;;1.10;99.90;;;;;;7383073;19;20324;-82
2023/03/07 06:49:41;;;;;;;18.15;11.52;;;1.10;99.90;;;;;;7381466;19;20981;-81
2023/03/07 06:52:06;;;;;;;14.77;11.70;;;1.00;99.90;;;;;;7379555;19;20309;-79
2023/03/07 06:54:32;;;;;;;17.13;12.47;;;1.00;99.90;;;;;;7378870;19;20436;-80
2023/03/07 06:56:58;;;;;;;17.33;11.88;;;1.00;99.90;;;;;;7381262;19;20344;-80
2023/03/07 06:59:23;;;;;;;15.70;12.00;;;1.00;99.90;;;;;;7379732;19;20319;-80
2023/03/07 07:01:49;;;;;;;15.13;12.00;;;1.00;99.90;;;;;;7376966;19;20394;-81
2023/03/07 07:04:16;;;;;;;13.68;11.20;;;1.00;99.90;;;;;;7378159;19;20426;-81
2023/03/07 07:06:42;;;;;;;15.80;11.82;;;1.00;99.90;;;;;;7378366;19;20840;-80
2023/03/07 07:09:11;;;;;;;14.17;11.37;;;1.00;99.90;;;;;;7377680;19;20380;-79
2023/03/07 07:11:37;;;;;;;14.00;11.30;;;1.00;99.90;;;;;;7377191;19;20307;-80
2023/03/07 07:14:04;;;;;;;15.43;11.02;;;1.00;99.90;;;;;;7377880;19;20309;-83
2023/03/07 07:16:32;;;;;;;13.13;10.80;;;1.00;99.90;;;;;;7379895;19;20330;-77
2023/03/07 07:18:58;;;;;;;15.02;11.50;;;1.00;99.90;;;;;;7377771;19;21089;-79
2023/03/07 07:21:24;;;;;;;14.50;11.07;;;1.00;99.90;;;;;;7375570;19;20325;-80
2023/03/07 07:23:49;;;;;;;16.30;10.90;;;1.00;99.90;;;;;;7376259;19;20335;-78
2023/03/07 07:26:16;;;;;;;14.30;10.73;;;1.00;99.90;;;;;;7376344;19;20340;-78
2023/03/07 07:28:43;;;;;;;14.18;11.27;;;1.00;99.90;;;;;;7378028;19;20341;-81
2023/03/07 07:31:09;;;;;;;15.80;12.48;;;1.10;99.90;;;;;;7375229;19;20384;-79
2023/03/07 07:33:36;;;;;;;15.07;11.35;;;1.10;99.90;;;;;;7375821;19;21200;-79
2023/03/07 07:36:03;;;;;;;14.45;11.32;;;1.10;99.90;;;;;;7376846;19;21154;-77
2023/03/07 07:38:29;;;;;;;13.85;11.40;;;1.20;99.90;;;;;;7378059;19;20376;-80
2023/03/07 07:40:55;;;;;;;14.73;11.23;;;1.20;99.90;;;;;;7373256;19;20823;-79
2023/03/07 07:43:21;;;;;;;16.13;12.00;;;1.20;99.90;;;;;;7375636;19;20321;-80
2023/03/07 07:46:06;;;;;;;12.82;10.77;;;1.20;99.90;;;;;;7272588;19;2004317;-76
2023/03/07 07:48:32;;;;;;;17.10;12.13;;;1.30;99.90;;;;;;7376435;19;20320;-78
2023/03/07 07:51:02;;;;;;;13.68;11.73;;;1.30;99.90;;;;;;7385918;19;20343;-79
2023/03/07 07:53:28;;;;;;;13.70;11.18;;;1.30;99.90;;;;;;7386376;19;20392;-83
2023/03/07 07:55:53;;;;;;;14.45;11.32;;;1.40;99.90;;;;;;7386295;19;20362;-79
2023/03/07 07:58:19;;;;;;;16.90;12.03;;;1.40;99.90;;;;;;7384711;19;20328;-79
2023/03/07 08:00:45;;;;;;;14.73;11.20;;;1.40;99.90;;;;;;7384121;19;20362;-79
2023/03/07 08:03:11;;;;;;;14.30;10.98;;;1.40;99.90;;;;;;7386001;19;21203;-81
2023/03/07 08:05:36;;;;;;;14.57;10.73;;;1.40;99.90;;;;;;7388353;19;20331;-79
2023/03/07 08:08:02;;;;;;;15.55;11.52;;;1.50;99.90;;;;;;7389510;19;20394;-79
2023/03/07 08:10:27;;;;;;;15.33;11.90;;;1.50;99.90;;;;;;7388083;19;20384;-77
2023/03/07 08:12:53;;;;;;;13.32;10.57;;;1.60;99.90;;;;;;7387241;19;20316;-77
2023/03/07 08:15:20;;;;;;;14.33;10.87;;;1.60;99.90;;;;;;7388171;19;20341;-79
2023/03/07 08:17:46;;;;;;;13.20;10.63;;;1.70;99.90;;;;;;7387899;19;20902;-83
2023/03/07 08:20:12;;;;;;;13.50;10.52;;;1.80;99.90;;;;;;7386816;19;20313;-77
2023/03/07 08:22:38;;;;;;;13.47;10.10;;;1.80;99.90;;;;;;7387601;19;20327;-81
2023/03/07 08:25:04;;;;;;;12.55;9.95;;;1.90;99.90;;;;;;7385040;19;20959;-78
2023/03/07 08:27:30;;;;;;;11.57;10.25;;;2.00;99.90;;;;;;7387553;19;20405;-79
2023/03/07 08:29:58;;;;;;;13.95;10.60;;;2.10;99.90;;;;;;7386569;19;20863;-84
2023/03/07 08:32:24;;;;;;;13.93;11.10;;;2.10;99.90;;;;;;7385080;19;20325;-79
2023/03/07 08:34:57;;;;;;;12.18;10.45;;;2.10;99.90;;;;;;7384686;19;20321;-78
2023/03/07 08:37:23;;;;;;;13.75;10.63;;;2.20;99.90;;;;;;7386103;19;20971;-79
2023/03/07 08:39:49;;;;;;;12.93;9.95;;;2.20;99.90;;;;;;7385140;19;20400;-78
2023/03/07 08:42:14;;;;;;;14.13;10.20;;;2.30;99.90;;;;;;7383069;19;20344;-81
2023/03/07 08:44:45;;;;;;;13.13;10.20;;;2.40;99.90;;;;;;7383041;19;21503;-79
2023/03/07 08:47:12;;;;;;;12.45;9.57;;;2.40;99.90;;;;;;7383876;19;20799;-78
2023/03/07 08:49:38;;;;;;;10.75;9.02;;;2.50;99.90;;;;;;7383232;19;20353;-77
2023/03/07 08:52:04;;;;;;;11.38;9.45;;;2.60;99.90;;;;;;7384558;19;20380;-79
2023/03/07 08:54:31;;;;;;;13.67;9.30;;;2.60;99.90;;;;;;7387891;19;20317;-78
2023/03/07 08:56:57;;;;;;;13.38;10.10;;;2.70;99.90;;;;;;7384141;19;20407;-80
2023/03/07 08:59:23;;;;;;;10.57;8.80;;;2.70;99.90;;;;;;7380814;19;20317;-78
2023/03/07 09:01:48;;;;;;;11.07;9.00;;;2.80;99.90;;;;;;7381469;19;20927;-82
2023/03/07 09:04:14;;;;;;;9.63;8.30;;;2.90;99.90;;;;;;7385615;19;20327;-82
2023/03/07 09:06:39;;;;;;;12.13;9.40;;;3.00;99.90;;;;;;7384455;19;20317;-85
2023/03/07 09:09:05;;;;;;;9.50;8.17;;;3.00;99.90;;;;;;7384780;19;20321;-80
2023/03/07 09:11:32;;;;;;;9.70;8.05;;;3.10;99.90;;;;;;7384783;19;20320;-80
2023/03/07 09:13:57;;;;;;;8.77;7.85;;;3.20;99.90;;;;;;7383599;19;20673;-79
2023/03/07 09:16:25;;;;;;;9.77;7.22;;;3.30;99.90;;;;;;7383069;19;20319;-83
2023/03/07 09:18:50;;;;;;;9.32;7.90;;;3.40;99.90;;;;;;7384116;19;20392;-79
2023/03/07 09:21:16;;;;;;;9.43;7.20;;;3.40;99.90;;;;;;7383592;19;20421;-81
2023/03/07 09:23:42;;;;;;;8.90;7.60;;;3.50;99.90;;;;;;7384637;19;20312;-81
2023/03/07 09:26:09;;;;;;;7.75;6.90;;;3.50;99.90;;;;;;7384283;19;20502;-87
2023/03/07 09:28:35;;;;;;;9.43;6.88;;;3.60;99.90;;;;;;7382235;19;20641;-77
2023/03/07 09:31:11;;;;;;;7.97;6.75;;;3.60;99.90;;;;;;7384398;19;20301;-83
2023/03/07 09:33:37;;;;;;;10.52;7.55;;;3.60;99.90;;;;;;7281433;19;2004609;-81
2023/03/07 09:36:07;;;;;;;9.40;7.18;;;3.70;99.90;;;;;;7382917;19;20316;-80
2023/03/07 09:38:33;;;;;;;9.00;6.85;;;3.70;99.90;;;;;;7281129;19;2004501;-79
2023/03/07 09:41:07;;;;;;;7.17;6.43;;;3.70;99.90;;;;;;7382369;19;20316;-80
2023/03/07 09:43:43;;;;;;;7.57;6.03;;;3.80;99.90;;;;;;7277057;19;2004361;-79
2023/03/07 09:46:59;;;;;;;7.00;6.05;;;3.80;99.90;;;;;;7381741;19;20903;-80
2023/03/07 09:49:39;;;;;;;8.30;6.60;;;3.90;99.90;;;;;;7278489;19;2018935;-87
2023/03/07 09:52:09;;;;;;;6.85;6.10;;;3.90;99.90;;;;;;7274710;19;2014396;-81
2023/03/07 09:54:43;;;;;;;7.45;6.07;;;4.00;99.90;;;;;;7381163;19;20316;-78
2023/03/07 09:57:15;;;;;;;5.50;5.00;;;4.10;99.90;;;;;;7380399;19;20348;-79
2023/03/07 09:59:45;;;;;;;8.27;5.95;;;4.20;99.90;;;;;;7381478;19;20324;-82
2023/03/07 10:02:17;;;;;;;7.22;5.50;;;4.20;99.90;;;;;;7378484;19;20304;-79
2023/03/07 10:04:53;;;;;;;6.53;5.55;;;4.20;99.90;;;;;;7382044;19;20381;-78
2023/03/07 10:07:21;;;;;;;6.20;5.55;;;4.20;99.90;;;;;;7380864;19;20316;-81
2023/03/07 10:09:46;;;;;;;5.87;5.27;;;4.20;99.90;;;;;;7381678;19;20747;-80
2023/03/07 10:12:25;;;;;;;8.35;6.78;;;4.20;99.90;;;;;;7379496;19;20387;-83
2023/03/07 10:15:02;;;;;;;6.07;5.47;;;4.20;99.90;;;;;;7379719;19;20356;-80
2023/03/07 10:17:55;;;;;;;7.10;4.88;;;4.20;99.90;;;;;;7381416;19;20311;-79
2023/03/07 10:20:53;;;;;;;5.70;5.10;;;4.20;99.90;;;;;;7277978;19;2020147;-83
2023/03/07 10:23:42;;;;;;;5.47;4.93;;;4.20;99.90;;;;;;7278781;19;2006038;-81
2023/03/07 10:26:15;;;;;;;6.30;5.20;;;4.20;99.90;;;;;;7280280;19;2004439;-80
2023/03/07 10:28:41;;;;;;;6.40;5.00;;;4.20;99.90;;;;;;7383267;19;20328;-79
2023/03/07 10:31:18;;;;;;;5.30;4.75;;;4.30;99.90;;;;;;7379815;19;20305;-83
2023/03/07 10:33:47;;;;;;;6.43;5.00;;;4.30;99.90;;;;;;7381918;19;20308;-78
2023/03/07 10:36:37;;;;;;;5.30;4.80;;;4.30;99.90;;;;;;7381042;19;20665;-80
2023/03/07 10:39:21;;;;;;;5.63;4.75;;;4.30;99.90;;;;;;7382762;19;20301;-81
2023/03/07 10:41:47;;;;;;;5.80;4.55;;;4.30;99.90;;;;;;7279054;19;2019097;-80
2023/03/07 10:44:16;;;;;;;4.80;4.30;;;4.40;99.90;;;;;;7384599;19;20309;-79
2023/03/07 10:46:41;;;;;;;5.07;4.57;;;4.40;99.90;;;;;;7384671;19;20312;-77
2023/03/07 10:49:19;;;;;;;6.05;4.97;;;4.40;99.90;;;;;;7385006;19;20359;-81
2023/03/07 10:51:59;;;;;;;5.63;4.65;;;4.40;99.90;;;;;;7384012;19;20316;-79
2023/03/07 10:54:35;;;;;;;6.13;5.53;;;4.40;99.90;;;;;;7385390;19;20301;-81
2023/03/07 10:57:04;;;;;;;5.20;4.70;;;4.40;99.90;;;;;;7384449;19;20397;-80
2023/03/07 10:59:30;;;;;;;5.93;5.32;;;4.40;99.90;;;;;;7380557;19;20353;-79
2023/03/07 11:01:57;;;;;;;5.80;5.05;;;4.50;99.90;;;;;;7381716;19;20320;-82
2023/03/07 11:04:24;;;;;;;5.75;5.15;;;4.50;99.90;;;;;;7385425;19;20320;-84
2023/03/07 11:06:58;;;;;;;5.65;5.05;;;4.50;99.90;;;;;;7381957;19;20362;-83
2023/03/07 11:09:29;;;;;;;5.90;5.30;;;4.50;99.90;;;;;;7382535;19;20323;-86
2023/03/07 11:11:59;;;;;;;5.80;4.78;;;4.50;99.90;;;;;;7382439;19;20330;-79
2023/03/07 11:14:29;;;;;;;5.90;5.20;;;4.60;99.90;;;;;;7383091;19;20319;-81
2023/03/07 11:16:57;;;;;;;5.50;5.00;;;4.60;99.90;;;;;;7382328;19;20308;-78
2023/03/07 11:19:32;;;;;;;5.85;5.25;;;4.70;99.90;;;;;;7383139;19;20301;-81
2023/03/07 11:21:59;;;;;;;5.77;4.77;;;4.70;99.90;;;;;;7382852;19;20400;-81
2023/03/07 11:24:27;;;;;;;5.55;4.95;;;4.70;99.90;;;;;;7386995;19;20408;-81
2023/03/07 11:26:53;;;;;;;5.20;4.53;;;4.80;99.90;;;;;;7388778;19;20320;-81
2023/03/07 11:29:19;;;;;;;5.35;4.63;;;4.70;99.90;;;;;;7388227;19;20953;-85
2023/03/07 11:31:46;;;;;;;5.03;4.53;;;4.70;99.90;;;;;;7386493;19;20313;-81
2023/03/07 11:34:26;;;;;;;5.30;4.80;;;4.70;99.90;;;;;;7388556;19;20304;-82
2023/03/07 11:36:59;;;;;;;4.78;4.03;;;4.70;99.90;;;;;;7386143;19;20836;-78
2023/03/07 11:39:31;;;;;;;5.53;4.18;;;4.70;99.90;;;;;;7388046;19;20309;-79
2023/03/07 11:42:03;;;;;;;5.30;4.47;;;4.70;99.90;;;;;;7385748;19;20888;-79
2023/03/07 11:44:49;;;;;;;5.72;4.00;;;4.70;99.90;;;;;;7386212;19;20752;-78
2023/03/07 11:47:32;;;;;;;6.00;4.72;;;4.70;99.90;;;;;;7284815;19;2005447;-81
2023/03/07 11:50:06;;;;;;;4.57;4.15;;;4.60;99.90;;;;;;7386505;19;20661;-80
2023/03/07 11:53:02;;;;;;;5.07;4.68;;;4.60;99.90;;;;;;7387088;19;20658;-81
2023/03/07 11:55:57;;;;;;;4.80;4.30;;;4.70;99.90;;;;;;7284197;19;2004432;-82
2023/03/07 11:58:32;;;;;;;5.28;4.72;;;4.70;99.90;;;;;;7285726;19;2004444;-78
2023/03/07 12:01:17;;;;;;;5.78;5.10;;;4.70;99.90;;;;;;7383740;19;20321;-78
2023/03/07 12:04:17;;;;;;;5.88;4.82;;;4.70;99.90;;;;;;7283668;19;2005959;-78
2023/03/07 12:07:26;;;;;;;5.80;5.10;;;4.70;99.90;;;;;;7285037;19;2004612;-80
2023/03/07 12:10:02;;;;;;;5.10;4.60;;;4.70;99.90;;;;;;7283129;19;2004872;-78
2023/03/07 12:12:39;;;;;;;5.40;4.78;;;4.70;99.90;;;;;;7387766;19;20300;-84
2023/03/07 12:15:24;;;;;;;5.70;5.15;;;4.80;99.90;;;;;;7283337;19;2004603;-78
2023/03/07 12:18:11;;;;;;;6.10;4.47;;;4.80;99.90;;;;;;7390234;19;20867;-79
2023/03/07 12:20:55;;;;;;;5.47;4.63;;;4.90;99.90;;;;;;7281656;19;2016856;-82
2023/03/07 12:23:26;;;;;;;4.88;4.40;;;5.00;99.90;;;;;;7387052;19;20341;-80
2023/03/07 12:25:54;;;;;;;5.13;4.63;;;5.00;99.90;;;;;;7388416;19;20308;-77
2023/03/07 12:28:38;;;;;;;6.10;5.00;;;5.10;99.90;;;;;;7386006;19;20341;-77
2023/03/07 12:31:23;;;;;;;6.22;5.18;;;5.10;99.90;;;;;;7387828;19;20305;-79
2023/03/07 12:34:08;;;;;;;5.57;4.90;;;5.20;99.90;;;;;;7285913;19;2004343;-79
2023/03/07 12:36:50;;;;;;;5.60;4.83;;;5.20;99.90;;;;;;7388094;19;20316;-79
2023/03/07 12:39:48;;;;;;;5.60;5.10;;;5.30;99.90;;;;;;7285568;19;2004450;-82
2023/03/07 12:42:16;;;;;;;5.60;4.97;;;5.30;99.90;;;;;;7282873;19;2018615;-80
2023/03/07 12:44:50;;;;;;;6.03;5.43;;;5.30;99.90;;;;;;7385751;19;20377;-79
2023/03/07 12:47:52;;;;;;;6.60;5.57;;;5.30;99.90;;;;;;7386749;19;20325;-80
2023/03/07 12:50:27;;;;;;;6.18;5.55;;;5.30;99.90;;;;;;7285014;19;2004363;-82
2023/03/07 12:52:59;;;;;;;6.30;5.55;;;5.40;99.90;;;;;;7387750;19;20316;-78
2023/03/07 12:55:26;;;;;;;8.15;5.55;;;5.60;99.90;;;;;;7386420;19;20476;-82
2023/03/07 12:58:03;;;;;;;6.63;5.15;;;5.60;99.90;;;;;;7385397;19;20321;-80
2023/03/07 13:00:30;;;;;;;6.47;5.45;;;5.70;99.90;;;;;;7383935;19;20312;-77
2023/03/07 13:03:00;;;;;;;6.88;5.90;;;5.60;99.90;;;;;;7386712;19;20311;-80
2023/03/07 13:05:26;;;;;;;6.38;5.70;;;5.70;99.90;;;;;;7384125;19;20350;-81
2023/03/07 13:07:52;;;;;;;6.40;5.50;;;5.80;99.90;;;;;;7385136;19;20328;-82
2023/03/07 13:10:19;;;;;;;6.28;5.07;;;5.70;99.90;;;;;;7384088;19;20323;-77
2023/03/07 13:12:45;;;;;;;6.25;5.20;;;5.60;99.90;;;;;;7384140;19;20349;-82
2023/03/07 13:15:17;;;;;;;6.30;5.20;;;5.60;99.90;;;;;;7383543;19;20317;-79
2023/03/07 13:17:43;;;;;;;7.43;5.50;;;5.50;99.90;;;;;;7386903;19;20341;-78
2023/03/07 13:20:15;;;;;;;5.77;5.17;;;5.60;99.90;;;;;;7386428;19;21231;-83
2023/03/07 13:22:41;;;;;;;5.63;5.10;;;5.60;99.90;;;;;;7384305;19;20317;-78
2023/03/07 13:25:19;;;;;;;6.40;5.05;;;5.70;99.90;;;;;;7387036;19;20323;-80
2023/03/07 13:27:55;;;;;;;6.05;5.45;;;5.60;99.90;;;;;;7387237;19;20393;-83
2023/03/07 13:30:30;;;;;;;6.17;5.30;;;5.60;99.90;;;;;;7384855;19;20372;-79
2023/03/07 13:33:02;;;;;;;6.18;5.57;;;5.60;99.90;;;;;;7386050;19;20693;-80
2023/03/07 13:35:47;;;;;;;5.80;5.15;;;5.60;99.90;;;;;;7384354;19;20334;-80
2023/03/07 13:38:33;;;;;;;6.40;5.30;;;5.40;99.90;;;;;;7283102;19;2004423;-77
2023/03/07 13:41:03;;;;;;;6.65;5.40;;;5.30;99.90;;;;;;7383696;19;20324;-82
2023/03/07 13:43:28;;;;;;;6.03;5.30;;;5.30;99.90;;;;;;7383296;19;20500;-80
2023/03/07 13:46:26;;;;;;;5.50;5.00;;;5.30;99.90;;;;;;7382862;19;20763;-82
2023/03/07 13:48:52;;;;;;;7.28;5.50;;;5.30;99.90;;;;;;7282707;19;2004182;-79
2023/03/07 13:51:27;;;;;;;5.60;5.00;;;5.20;99.90;;;;;;7383634;19;20847;-83
2023/03/07 13:54:10;;;;;;;5.63;5.07;;;5.20;99.90;;;;;;7384099;19;20693;-79